Alexandra Danos — WDD9560 — position and weather

sailwx.info

Track history (hours):
 
Tides and Currents Weather Stations Pressure Air Temp Water Temp Dewpoint Dewpoint Depression Visibility Wind Speed Wind Dir Waves Ship Positions

Alexandra Danos

Owner: GOL SUPPLY BOATS, LLC, MATHEWS, LA. More information available from US FCC via Universal Licensing System and Coast Guard Vessel Documentation Center.

Last reported at 2018-Jan-19 10:52 UTC. Time now 2018-Jan-19 19:25 UTC.
Position N 29°39' W 092°16'.

Length 47 m; draft 3 m.

Type: Ship. MMSI: 367313120.

Date/timePositionNaut miles runAvg speedWind from/ knotsBaromVisibWave heightAir tempDewpointWater temp
2018-Jan-19 10:52N 29°39' W 092°16'3 8.1
2018-Jan-19 10:30N 29°42' W 092°15'4 8.0
2018-Jan-19 10:00N 29°45' W 092°13'2 4.5
2018-Jan-19 09:30N 29°47' W 092°11'1 1.5
2018-Jan-19 09:00N 29°46' W 092°10'4 7.2
2018-Jan-19 08:31N 29°44' W 092°14'4 7.0
2018-Jan-19 08:01N 29°41' W 092°15'3 4.5
2018-Jan-19 07:23N 29°38' W 092°16'0 0.0
2018-Jan-19 05:50N 29°38' W 092°16'3 7.8
2018-Jan-19 05:30N 29°41' W 092°15'4 7.7
2018-Jan-19 05:00N 29°45' W 092°14'3 6.6
2018-Jan-19 04:31N 29°47' W 092°11'0 0.9
2018-Jan-19 04:01N 29°47' W 092°11'0 0.0
2018-Jan-19 03:30N 29°47' W 092°11'0 0.0
2018-Jan-19 03:00N 29°47' W 092°11'0 0.0
2018-Jan-19 02:30N 29°47' W 092°11'0 0.0
2018-Jan-19 02:00N 29°47' W 092°11'0 0.0
2018-Jan-19 01:29N 29°47' W 092°11'0 0.0
2018-Jan-19 01:00N 29°47' W 092°11'0 0.0
2018-Jan-19 00:30N 29°47' W 092°11'0 0.0
2018-Jan-18 23:59N 29°47' W 092°11'0 0.0
2018-Jan-18 23:30N 29°47' W 092°11'0 0.0
2018-Jan-18 23:00N 29°47' W 092°11'0 0.0
2018-Jan-18 22:30N 29°47' W 092°11'0 0.0
2018-Jan-18 22:00N 29°47' W 092°11'0 0.0
2018-Jan-18 21:30N 29°47' W 092°11'0 0.0
2018-Jan-18 21:00N 29°47' W 092°11'0 0.0
2018-Jan-18 20:30N 29°47' W 092°11'0 0.0
2018-Jan-18 20:00N 29°47' W 092°11'0 0.1
2018-Jan-18 19:31N 29°47' W 092°11'0 0.0
2018-Jan-18 19:00N 29°47' W 092°11'0 0.0
2018-Jan-18 18:30N 29°47' W 092°11'0 0.0
2018-Jan-18 18:00N 29°47' W 092°11'0 0.0
2018-Jan-18 17:31N 29°47' W 092°11'0 0.0
2018-Jan-18 17:00N 29°47' W 092°11'0 0.0
2018-Jan-18 16:31N 29°47' W 092°11'0 0.0
2018-Jan-18 16:00N 29°47' W 092°11'0 0.0
2018-Jan-18 15:31N 29°47' W 092°11'0 0.0
2018-Jan-18 15:01N 29°47' W 092°11'0 0.0
2018-Jan-18 14:30N 29°47' W 092°11'0 0.0
2018-Jan-18 14:01N 29°47' W 092°11'0 0.0
2018-Jan-18 13:30N 29°47' W 092°11'0 0.0
2018-Jan-18 13:00N 29°47' W 092°11'0 0.0
2018-Jan-18 12:30N 29°47' W 092°11'0 0.0
2018-Jan-18 12:00N 29°47' W 092°11'0 0.0
2018-Jan-18 11:31N 29°47' W 092°11'0 0.0
2018-Jan-18 10:58N 29°47' W 092°11'0 0.0
2018-Jan-18 10:30N 29°47' W 092°11'0 0.0
2018-Jan-18 10:00N 29°47' W 092°11'0 0.0
2018-Jan-18 09:30N 29°47' W 092°11'0 0.0
2018-Jan-18 09:00N 29°47' W 092°11'0 0.0
2018-Jan-18 08:31N 29°47' W 092°11'0 0.0
2018-Jan-18 08:01N 29°47' W 092°11'0 0.0
2018-Jan-18 07:31N 29°47' W 092°11'0 0.0
2018-Jan-18 07:00N 29°47' W 092°11'0 0.0
2018-Jan-18 06:30N 29°47' W 092°11'0 0.0
2018-Jan-18 06:00N 29°47' W 092°11'0 0.0
2018-Jan-18 05:30N 29°47' W 092°11'0 0.0
2018-Jan-18 05:00N 29°47' W 092°11'0 0.0
2018-Jan-18 04:31N 29°47' W 092°11'0 0.0
2018-Jan-18 04:00N 29°47' W 092°11'0 0.0
2018-Jan-18 03:30N 29°47' W 092°11'0 0.0
2018-Jan-18 02:59N 29°47' W 092°11'0 0.0
2018-Jan-18 02:30N 29°47' W 092°11'0 0.0
2018-Jan-18 02:00N 29°47' W 092°11'0 0.0
2018-Jan-18 01:30N 29°47' W 092°11'0 0.0
2018-Jan-18 00:59N 29°47' W 092°11'0 0.0
2018-Jan-17 23:56N 29°47' W 092°11'  
2018-Jan-10 20:16N 29°39' W 092°16'2 7.4
2018-Jan-10 20:00N 29°41' W 092°15'4 7.3
2018-Jan-10 19:31N 29°44' W 092°14'3 6.7
2018-Jan-10 19:01N 29°46' W 092°11'1 1.4
2018-Jan-10 18:30N 29°47' W 092°11'0 0.0
2018-Jan-10 18:00N 29°47' W 092°11'0 0.0
2018-Jan-10 17:31N 29°47' W 092°11'0 0.0
2018-Jan-10 17:00N 29°47' W 092°11'0 0.0
2018-Jan-10 16:30N 29°47' W 092°11'0 0.0
2018-Jan-10 16:01N 29°47' W 092°11'0 0.0
2018-Jan-10 15:30N 29°47' W 092°11'0 0.0
2018-Jan-10 15:00N 29°47' W 092°11'0 0.0
2018-Jan-10 14:31N 29°47' W 092°11'0 0.0
2018-Jan-10 14:00N 29°47' W 092°11'0 0.0
2018-Jan-10 13:30N 29°47' W 092°11'0 0.1
2018-Jan-10 13:01N 29°47' W 092°11'0 0.1
2018-Jan-10 12:31N 29°47' W 092°11'0 0.0
2018-Jan-10 12:00N 29°47' W 092°11'0 0.0
2018-Jan-10 11:28N 29°47' W 092°11'0 0.0
2018-Jan-10 11:00N 29°47' W 092°11'0 0.0
2018-Jan-10 10:30N 29°47' W 092°11'0 0.0
2018-Jan-10 10:01N 29°47' W 092°11'0 0.0
2018-Jan-10 09:31N 29°47' W 092°11'0 0.0
2018-Jan-10 09:00N 29°47' W 092°11'0 0.0
2018-Jan-10 08:31N 29°47' W 092°11'0 0.0
2018-Jan-10 08:01N 29°47' W 092°11'0 0.0
2018-Jan-10 07:31N 29°47' W 092°11'0 0.0
2018-Jan-10 07:00N 29°47' W 092°11'0 0.0
2018-Jan-10 06:31N 29°47' W 092°11'0 0.0
2018-Jan-10 06:01N 29°47' W 092°11'0 0.0
2018-Jan-10 05:31N 29°47' W 092°11'0 0.0
2018-Jan-10 05:01N 29°47' W 092°11'0 0.0
2018-Jan-10 04:30N 29°47' W 092°11'0 0.0
2018-Jan-10 04:00N 29°47' W 092°11'0 0.0
2018-Jan-10 03:30N 29°47' W 092°11'0 0.0
2018-Jan-10 03:01N 29°47' W 092°11'0 0.0
2018-Jan-10 02:30N 29°47' W 092°11'0 0.0
2018-Jan-10 02:01N 29°47' W 092°11'0 0.0
2018-Jan-10 01:31N 29°47' W 092°11'0 0.0
2018-Jan-10 01:00N 29°47' W 092°11'0 0.0
2018-Jan-10 00:31N 29°47' W 092°11'0 0.0
2018-Jan-10 00:01N 29°47' W 092°11'0 0.0
2018-Jan-09 23:31N 29°47' W 092°11'0 0.0
2018-Jan-09 23:00N 29°47' W 092°11'0 0.0
2018-Jan-09 22:31N 29°47' W 092°11'0 0.0
2018-Jan-09 22:01N 29°47' W 092°11'0 0.0
2018-Jan-09 21:30N 29°47' W 092°11'0 0.0
2018-Jan-09 21:01N 29°47' W 092°11'0 0.0
2018-Jan-09 20:30N 29°47' W 092°11'0 0.0
2018-Jan-09 20:01N 29°47' W 092°11'0 0.0
2018-Jan-09 19:31N 29°47' W 092°11'0 0.0
2018-Jan-09 19:01N 29°47' W 092°11'0 0.3
2018-Jan-09 18:31N 29°47' W 092°11'0 0.0
2018-Jan-09 18:01N 29°47' W 092°11'0 0.3
2018-Jan-09 17:31N 29°47' W 092°11'0 0.0
2018-Jan-09 17:01N 29°47' W 092°11'0 0.0
2018-Jan-09 16:31N 29°47' W 092°11'0 0.0
2018-Jan-09 16:01N 29°47' W 092°11'0 0.0
2018-Jan-09 15:31N 29°47' W 092°11'0 0.0
2018-Jan-09 15:00N 29°47' W 092°11'0 0.0
2018-Jan-09 14:31N 29°47' W 092°11'0 0.0
2018-Jan-09 14:01N 29°47' W 092°11'0 0.0
2018-Jan-09 13:31N 29°47' W 092°11'0 0.0
2018-Jan-09 13:01N 29°47' W 092°11'0 0.0
2018-Jan-09 12:31N 29°47' W 092°11'0 0.0
2018-Jan-09 12:01N 29°47' W 092°11'0 0.0
2018-Jan-09 11:30N 29°47' W 092°11'0 0.0
2018-Jan-09 11:01N 29°47' W 092°11'  
Track history (hours):
 
Tides and Currents Weather Stations Pressure Air Temp Water Temp Dewpoint Dewpoint Depression Visibility Wind Speed Wind Dir Waves Ship Positions

Alexandra Danos

Owner: GOL SUPPLY BOATS, LLC, MATHEWS, LA. More information available from US FCC via Universal Licensing System and Coast Guard Vessel Documentation Center.

Last reported at 2018-Jan-19 10:52 UTC. Time now 2018-Jan-19 19:25 UTC.
Position N 29°39' W 092°16'.

Length 47 m; draft 3 m.

Type: Ship. MMSI: 367313120.

Date/timePositionNaut miles runAvg speedWind from/ knotsBaromVisibWave heightAir tempDewpointWater temp
2018-Jan-19 10:52N 29°39' W 092°16'3 8.1
2018-Jan-19 10:30N 29°42' W 092°15'4 8.0
2018-Jan-19 10:00N 29°45' W 092°13'2 4.5
2018-Jan-19 09:30N 29°47' W 092°11'1 1.5
2018-Jan-19 09:00N 29°46' W 092°10'4 7.2
2018-Jan-19 08:31N 29°44' W 092°14'4 7.0
2018-Jan-19 08:01N 29°41' W 092°15'3 4.5
2018-Jan-19 07:23N 29°38' W 092°16'0 0.0
2018-Jan-19 05:50N 29°38' W 092°16'3 7.8
2018-Jan-19 05:30N 29°41' W 092°15'4 7.7
2018-Jan-19 05:00N 29°45' W 092°14'3 6.6
2018-Jan-19 04:31N 29°47' W 092°11'0 0.9
2018-Jan-19 04:01N 29°47' W 092°11'0 0.0
2018-Jan-19 03:30N 29°47' W 092°11'0 0.0
2018-Jan-19 03:00N 29°47' W 092°11'0 0.0
2018-Jan-19 02:30N 29°47' W 092°11'0 0.0
2018-Jan-19 02:00N 29°47' W 092°11'0 0.0
2018-Jan-19 01:29N 29°47' W 092°11'0 0.0
2018-Jan-19 01:00N 29°47' W 092°11'0 0.0
2018-Jan-19 00:30N 29°47' W 092°11'0 0.0
2018-Jan-18 23:59N 29°47' W 092°11'0 0.0
2018-Jan-18 23:30N 29°47' W 092°11'0 0.0
2018-Jan-18 23:00N 29°47' W 092°11'0 0.0
2018-Jan-18 22:30N 29°47' W 092°11'0 0.0
2018-Jan-18 22:00N 29°47' W 092°11'0 0.0
2018-Jan-18 21:30N 29°47' W 092°11'0 0.0
2018-Jan-18 21:00N 29°47' W 092°11'0 0.0
2018-Jan-18 20:30N 29°47' W 092°11'0 0.0
2018-Jan-18 20:00N 29°47' W 092°11'0 0.1
2018-Jan-18 19:31N 29°47' W 092°11'0 0.0
2018-Jan-18 19:00N 29°47' W 092°11'0 0.0
2018-Jan-18 18:30N 29°47' W 092°11'0 0.0
2018-Jan-18 18:00N 29°47' W 092°11'0 0.0
2018-Jan-18 17:31N 29°47' W 092°11'0 0.0
2018-Jan-18 17:00N 29°47' W 092°11'0 0.0
2018-Jan-18 16:31N 29°47' W 092°11'0 0.0
2018-Jan-18 16:00N 29°47' W 092°11'0 0.0
2018-Jan-18 15:31N 29°47' W 092°11'0 0.0
2018-Jan-18 15:01N 29°47' W 092°11'0 0.0
2018-Jan-18 14:30N 29°47' W 092°11'0 0.0
2018-Jan-18 14:01N 29°47' W 092°11'0 0.0
2018-Jan-18 13:30N 29°47' W 092°11'0 0.0
2018-Jan-18 13:00N 29°47' W 092°11'0 0.0
2018-Jan-18 12:30N 29°47' W 092°11'0 0.0
2018-Jan-18 12:00N 29°47' W 092°11'0 0.0
2018-Jan-18 11:31N 29°47' W 092°11'0 0.0
2018-Jan-18 10:58N 29°47' W 092°11'0 0.0
2018-Jan-18 10:30N 29°47' W 092°11'0 0.0
2018-Jan-18 10:00N 29°47' W 092°11'0 0.0
2018-Jan-18 09:30N 29°47' W 092°11'0 0.0
2018-Jan-18 09:00N 29°47' W 092°11'0 0.0
2018-Jan-18 08:31N 29°47' W 092°11'0 0.0
2018-Jan-18 08:01N 29°47' W 092°11'0 0.0
2018-Jan-18 07:31N 29°47' W 092°11'0 0.0
2018-Jan-18 07:00N 29°47' W 092°11'0 0.0
2018-Jan-18 06:30N 29°47' W 092°11'0 0.0
2018-Jan-18 06:00N 29°47' W 092°11'0 0.0
2018-Jan-18 05:30N 29°47' W 092°11'0 0.0
2018-Jan-18 05:00N 29°47' W 092°11'0 0.0
2018-Jan-18 04:31N 29°47' W 092°11'0 0.0
2018-Jan-18 04:00N 29°47' W 092°11'0 0.0
2018-Jan-18 03:30N 29°47' W 092°11'0 0.0
2018-Jan-18 02:59N 29°47' W 092°11'0 0.0
2018-Jan-18 02:30N 29°47' W 092°11'0 0.0
2018-Jan-18 02:00N 29°47' W 092°11'0 0.0
2018-Jan-18 01:30N 29°47' W 092°11'0 0.0
2018-Jan-18 00:59N 29°47' W 092°11'0 0.0
2018-Jan-17 23:56N 29°47' W 092°11'  
2018-Jan-10 20:16N 29°39' W 092°16'2 7.4
2018-Jan-10 20:00N 29°41' W 092°15'4 7.3
2018-Jan-10 19:31N 29°44' W 092°14'3 6.7
2018-Jan-10 19:01N 29°46' W 092°11'1 1.4
2018-Jan-10 18:30N 29°47' W 092°11'0 0.0
2018-Jan-10 18:00N 29°47' W 092°11'0 0.0
2018-Jan-10 17:31N 29°47' W 092°11'0 0.0
2018-Jan-10 17:00N 29°47' W 092°11'0 0.0
2018-Jan-10 16:30N 29°47' W 092°11'0 0.0
2018-Jan-10 16:01N 29°47' W 092°11'0 0.0
2018-Jan-10 15:30N 29°47' W 092°11'0 0.0
2018-Jan-10 15:00N 29°47' W 092°11'0 0.0
2018-Jan-10 14:31N 29°47' W 092°11'0 0.0
2018-Jan-10 14:00N 29°47' W 092°11'0 0.0
2018-Jan-10 13:30N 29°47' W 092°11'0 0.1
2018-Jan-10 13:01N 29°47' W 092°11'0 0.1
2018-Jan-10 12:31N 29°47' W 092°11'0 0.0
2018-Jan-10 12:00N 29°47' W 092°11'0 0.0
2018-Jan-10 11:28N 29°47' W 092°11'0 0.0
2018-Jan-10 11:00N 29°47' W 092°11'0 0.0
2018-Jan-10 10:30N 29°47' W 092°11'0 0.0
2018-Jan-10 10:01N 29°47' W 092°11'0 0.0
2018-Jan-10 09:31N 29°47' W 092°11'0 0.0
2018-Jan-10 09:00N 29°47' W 092°11'0 0.0
2018-Jan-10 08:31N 29°47' W 092°11'0 0.0
2018-Jan-10 08:01N 29°47' W 092°11'0 0.0
2018-Jan-10 07:31N 29°47' W 092°11'0 0.0
2018-Jan-10 07:00N 29°47' W 092°11'0 0.0
2018-Jan-10 06:31N 29°47' W 092°11'0 0.0
2018-Jan-10 06:01N 29°47' W 092°11'0 0.0
2018-Jan-10 05:31N 29°47' W 092°11'0 0.0
2018-Jan-10 05:01N 29°47' W 092°11'0 0.0
2018-Jan-10 04:30N 29°47' W 092°11'0 0.0
2018-Jan-10 04:00N 29°47' W 092°11'0 0.0
2018-Jan-10 03:30N 29°47' W 092°11'0 0.0
2018-Jan-10 03:01N 29°47' W 092°11'0 0.0
2018-Jan-10 02:30N 29°47' W 092°11'0 0.0
2018-Jan-10 02:01N 29°47' W 092°11'0 0.0
2018-Jan-10 01:31N 29°47' W 092°11'0 0.0
2018-Jan-10 01:00N 29°47' W 092°11'0 0.0
2018-Jan-10 00:31N 29°47' W 092°11'0 0.0
2018-Jan-10 00:01N 29°47' W 092°11'0 0.0
2018-Jan-09 23:31N 29°47' W 092°11'0 0.0
2018-Jan-09 23:00N 29°47' W 092°11'0 0.0
2018-Jan-09 22:31N 29°47' W 092°11'0 0.0
2018-Jan-09 22:01N 29°47' W 092°11'0 0.0
2018-Jan-09 21:30N 29°47' W 092°11'0 0.0
2018-Jan-09 21:01N 29°47' W 092°11'0 0.0
2018-Jan-09 20:30N 29°47' W 092°11'0 0.0
2018-Jan-09 20:01N 29°47' W 092°11'0 0.0
2018-Jan-09 19:31N 29°47' W 092°11'0 0.0
2018-Jan-09 19:01N 29°47' W 092°11'0 0.3
2018-Jan-09 18:31N 29°47' W 092°11'0 0.0
2018-Jan-09 18:01N 29°47' W 092°11'0 0.3
2018-Jan-09 17:31N 29°47' W 092°11'0 0.0
2018-Jan-09 17:01N 29°47' W 092°11'0 0.0
2018-Jan-09 16:31N 29°47' W 092°11'0 0.0
2018-Jan-09 16:01N 29°47' W 092°11'0 0.0
2018-Jan-09 15:31N 29°47' W 092°11'0 0.0
2018-Jan-09 15:00N 29°47' W 092°11'0 0.0
2018-Jan-09 14:31N 29°47' W 092°11'0 0.0
2018-Jan-09 14:01N 29°47' W 092°11'0 0.0
2018-Jan-09 13:31N 29°47' W 092°11'0 0.0
2018-Jan-09 13:01N 29°47' W 092°11'0 0.0
2018-Jan-09 12:31N 29°47' W 092°11'0 0.0
2018-Jan-09 12:01N 29°47' W 092°11'0 0.0
2018-Jan-09 11:30N 29°47' W 092°11'0 0.0
2018-Jan-09 11:01N 29°47' W 092°11'  

Dump ship's entire track history